Time;durP1;ratioP1;P1;durP2;ratioP2;P2;SDS_P1;SDS_P2;PMS_P1;PMS_P2;Temp;Humidity;BMP_temperature;BMP_pressure;BME280_temperature;BME280_humidity;BME280_pressure;Samples;Min_cycle;Max_cycle;Signal;HPM_P1;HPM_P2
2022/06/13 00:00:37;;;;;;;7.37;2.70;;;;;;;17.41;100.00;98924.56;5093492;28;20247;-50
2022/06/13 00:03:04;;;;;;;3.73;2.50;;;;;;;17.40;100.00;98915.84;5093608;28;20699;-50
2022/06/13 00:05:31;;;;;;;6.73;3.37;;;;;;;17.36;100.00;98913.75;5093671;28;20199;-50
2022/06/13 00:08:00;;;;;;;4.80;2.80;;;;;;;17.37;100.00;98899.56;5092189;28;20209;-50
2022/06/13 00:10:27;;;;;;;7.10;2.67;;;;;;;17.27;100.00;98905.97;5093586;28;20198;-49
2022/06/13 00:12:54;;;;;;;3.70;2.70;;;;;;;17.21;100.00;98917.25;5093641;28;20193;-49
2022/06/13 00:15:21;;;;;;;5.97;3.43;;;;;;;17.14;100.00;98919.00;5093360;28;20198;-50
2022/06/13 00:17:49;;;;;;;5.30;3.00;;;;;;;17.08;100.00;98922.41;5093098;28;20220;-51
2022/06/13 00:20:16;;;;;;;4.90;2.47;;;;;;;17.09;100.00;98929.31;5093480;28;20545;-49
2022/06/13 00:22:44;;;;;;;2.87;2.53;;;;;;;17.06;100.00;98935.78;5093398;28;20185;-50
2022/06/13 00:25:13;;;;;;;4.17;2.63;;;;;;;17.07;100.00;98926.88;5093608;28;20595;-50
2022/06/13 00:27:40;;;;;;;5.07;2.63;;;;;;;17.04;100.00;98921.13;5092894;28;20244;-50
2022/06/13 00:30:10;;;;;;;4.00;2.47;;;;;;;17.02;100.00;98923.97;5091707;28;20227;-50
2022/06/13 00:32:38;;;;;;;7.07;2.70;;;;;;;16.95;100.00;98925.69;5093309;28;20700;-50
2022/06/13 00:35:05;;;;;;;4.70;2.63;;;;;;;16.91;100.00;98927.88;5093029;28;20670;-50
2022/06/13 00:37:32;;;;;;;3.90;2.03;;;;;;;16.83;100.00;98925.34;5092944;28;20211;-49
2022/06/13 00:40:00;;;;;;;5.97;2.47;;;;;;;16.81;100.00;98927.34;5093276;28;20536;-49
2022/06/13 00:42:29;;;;;;;3.83;2.20;;;;;;;16.81;100.00;98927.34;5093166;28;20199;-50
2022/06/13 00:45:07;;;;;;;2.83;1.90;;;;;;;16.78;100.00;98917.97;5092921;28;20180;-49
2022/06/13 00:47:35;;;;;;;8.83;2.40;;;;;;;16.78;100.00;98923.25;5093000;28;20202;-49
2022/06/13 00:50:05;;;;;;;4.00;2.20;;;;;;;16.73;100.00;98930.88;5092993;28;20193;-50
2022/06/13 00:52:38;;;;;;;3.10;2.00;;;;;;;16.64;100.00;98927.53;5092810;28;20268;-50
2022/06/13 00:55:09;;;;;;;4.57;2.20;;;;;;;16.58;100.00;98925.63;5091702;28;20566;-50
2022/06/13 00:57:38;;;;;;;4.10;1.93;;;;;;;16.52;100.00;98921.91;5091630;28;20212;-51
2022/06/13 01:00:09;;;;;;;5.77;2.10;;;;;;;16.43;100.00;98917.72;5092715;28;20733;-50
2022/06/13 01:02:40;;;;;;;6.80;2.10;;;;;;;16.38;100.00;98925.38;5092694;28;20195;-50
2022/06/13 01:05:09;;;;;;;6.60;2.30;;;;;;;16.30;100.00;98931.53;5086669;28;20231;-49
2022/06/13 01:07:38;;;;;;;7.50;2.43;;;;;;;16.30;100.00;98938.63;5086419;28;20245;-49
2022/06/13 01:12:54;;;;;;;4.83;2.20;;;;;;;16.22;100.00;98928.97;5074485;28;20326;-49
2022/06/13 01:15:36;;;;;;;5.43;2.43;;;;;;;16.19;100.00;98934.59;5071860;28;20265;-50
2022/06/13 01:18:19;;;;;;;3.77;2.30;;;;;;;16.15;100.00;98920.97;5071469;28;20716;-50
2022/06/13 01:21:06;;;;;;;6.80;2.17;;;;;;;16.09;100.00;98914.59;5071720;28;20200;-50
2022/06/13 01:24:00;;;;;;;3.17;2.37;;;;;;;16.11;100.00;98916.25;5071860;28;20206;-49
2022/06/13 01:27:24;;;;;;;8.87;2.10;;;;;;;16.07;100.00;98926.31;5086031;28;20721;-49
2022/06/13 01:30:00;;;;;;;4.23;2.20;;;;;;;16.05;100.00;98930.97;4985087;28;20209;-50
2022/06/13 01:32:42;;;;;;;4.57;2.53;;;;;;;15.97;100.00;98937.09;5091838;28;20202;-50
2022/06/13 01:35:34;;;;;;;6.80;2.80;;;;;;;15.93;100.00;98930.56;5091869;28;20695;-50
2022/06/13 01:38:12;;;;;;;4.77;2.80;;;;;;;15.89;100.00;98932.72;5091623;28;20215;-50
2022/06/13 01:40:56;;;;;;;3.53;2.37;;;;;;;15.83;100.00;98932.59;5091672;28;20198;-50
2022/06/13 01:43:31;;;;;;;4.20;2.37;;;;;;;15.77;100.00;98920.97;5091443;28;20252;-50
2022/06/13 01:46:22;;;;;;;3.73;2.80;;;;;;;15.75;100.00;98931.69;5091689;28;20627;-50
2022/06/13 01:49:00;;;;;;;12.17;3.23;;;;;;;15.76;100.00;98935.94;5091133;28;20224;-50
2022/06/13 01:51:36;;;;;;;5.80;2.70;;;;;;;15.78;100.00;98944.47;5091555;28;20194;-50
2022/06/13 01:54:16;;;;;;;5.37;2.70;;;;;;;15.83;100.00;98940.50;5090261;28;20218;-50
2022/06/13 01:56:51;;;;;;;8.90;2.80;;;;;;;15.76;100.00;98940.38;5091323;28;20190;-50
2022/06/13 01:59:25;;;;;;;5.00;2.70;;;;;;;15.77;100.00;98937.59;5089546;28;20716;-50
2022/06/13 02:01:59;;;;;;;6.83;3.00;;;;;;;15.72;100.00;98941.72;5091407;28;20626;-51
2022/06/13 02:04:33;;;;;;;6.50;2.83;;;;;;;15.70;100.00;98944.53;5091267;28;20218;-49
2022/06/13 02:07:05;;;;;;;4.77;2.73;;;;;;;15.65;100.00;98944.25;5091303;28;20227;-49
2022/06/13 02:09:39;;;;;;;6.68;3.00;;;;;;;15.61;100.00;98937.69;5089803;28;20839;-49
2022/06/13 02:12:07;;;;;;;8.60;3.10;;;;;;;15.54;100.00;98940.19;5071764;28;20257;-50
2022/06/13 02:14:37;;;;;;;7.13;2.60;;;;;;;15.52;100.00;98939.56;5086111;28;20215;-49
2022/06/13 02:17:10;;;;;;;4.70;2.80;;;;;;;15.50;100.00;98926.59;5071915;28;20188;-50
2022/06/13 02:19:45;;;;;;;7.73;3.40;;;;;;;15.51;100.00;98930.03;5086629;28;20584;-50
2022/06/13 02:22:36;;;;;;;5.50;2.70;;;;;;;15.41;100.00;98921.53;5085841;28;20211;-50
2022/06/13 02:25:07;;;;;;;7.03;2.77;;;;;;;15.35;100.00;98918.66;5091019;28;20219;-49
2022/06/13 02:27:37;;;;;;;5.23;2.63;;;;;;;15.26;100.00;98921.50;5091298;28;20210;-50
2022/06/13 02:30:09;;;;;;;6.53;2.80;;;;;;;15.22;100.00;98923.66;5091190;28;20271;-49
2022/06/13 02:32:43;;;;;;;5.87;2.97;;;;;;;15.13;100.00;98929.97;5091187;28;20201;-49
2022/06/13 02:35:15;;;;;;;8.07;3.00;;;;;;;15.10;100.00;98928.47;5090809;28;20205;-49
2022/06/13 02:37:48;;;;;;;6.10;3.20;;;;;;;15.06;100.00;98924.56;5090929;28;20210;-49
2022/06/13 02:40:21;;;;;;;7.07;3.17;;;;;;;14.97;100.00;98921.16;5091157;28;20192;-50
2022/06/13 02:42:58;;;;;;;8.53;2.73;;;;;;;14.91;100.00;98935.00;5072618;28;20653;-50
2022/06/13 02:45:30;;;;;;;4.67;3.10;;;;;;;14.86;100.00;98937.31;5070827;28;20191;-49
2022/06/13 02:48:07;;;;;;;7.93;3.20;;;;;;;14.82;100.00;98941.25;5070529;28;20226;-49
2022/06/13 02:51:03;;;;;;;3.50;2.93;;;;;;;14.73;100.00;98941.28;5071161;28;20346;-49
2022/06/13 02:53:36;;;;;;;6.60;3.23;;;;;;;14.65;100.00;98938.66;5070887;28;20202;-50
2022/06/13 02:56:11;;;;;;;9.57;3.20;;;;;;;14.64;100.00;98939.66;5070534;28;20232;-50
2022/06/13 02:58:49;;;;;;;5.50;3.50;;;;;;;14.55;100.00;98935.41;5070310;28;20721;-50
2022/06/13 03:01:21;;;;;;;6.83;3.37;;;;;;;14.41;100.00;98943.00;5082869;28;20210;-49
2022/06/13 03:03:56;;;;;;;8.47;3.27;;;;;;;14.39;100.00;98933.66;5090673;28;20188;-50
2022/06/13 03:06:31;;;;;;;7.80;3.60;;;;;;;14.35;100.00;98937.59;5089511;28;20261;-49
2022/06/13 03:09:03;;;;;;;7.90;3.53;;;;;;;14.26;100.00;98942.06;5090621;28;20231;-49
2022/06/13 03:11:48;;;;;;;7.83;3.33;;;;;;;14.24;100.00;98942.22;5091270;28;20647;-49
2022/06/13 03:14:43;;;;;;;6.83;3.27;;;;;;;14.19;100.00;98938.47;5082106;28;20210;-52
2022/06/13 03:17:21;;;;;;;9.17;3.33;;;;;;;14.20;100.00;98942.72;5078365;28;20188;-52
2022/06/13 03:19:53;;;;;;;6.23;3.10;;;;;;;14.21;100.00;98947.00;5090659;28;20286;-49
2022/06/13 03:22:28;;;;;;;8.13;3.70;;;;;;;14.13;100.00;98951.28;5092301;28;20710;-49
2022/06/13 03:25:03;;;;;;;10.87;3.53;;;;;;;14.11;100.00;98948.00;5085179;28;20200;-49
2022/06/13 03:27:35;;;;;;;10.13;3.43;;;;;;;14.11;100.00;98953.25;5074468;28;20228;-49
2022/06/13 03:30:08;;;;;;;5.37;3.60;;;;;;;14.05;100.00;98953.06;5085044;28;20221;-50
2022/06/13 03:32:39;;;;;;;8.60;3.00;;;;;;;14.09;100.00;98949.97;5094859;28;20194;-50
2022/06/13 03:35:12;;;;;;;9.37;3.27;;;;;;;14.07;100.00;98957.19;5094571;28;20212;-49
2022/06/13 03:37:46;;;;;;;9.67;3.53;;;;;;;14.04;100.00;98952.25;5078770;28;20683;-49
2022/06/13 03:40:18;;;;;;;8.33;3.03;;;;;;;14.03;100.00;98950.63;5086522;28;20223;-51
2022/06/13 03:42:51;;;;;;;5.80;3.23;;;;;;;14.03;100.00;98946.19;5094625;28;20204;-49
2022/06/13 03:45:23;;;;;;;8.27;3.27;;;;;;;14.08;100.00;98952.72;5082779;28;20192;-49
2022/06/13 03:47:55;;;;;;;9.13;3.53;;;;;;;14.12;100.00;98948.78;5090619;28;20711;-50
2022/06/13 03:50:26;;;;;;;6.87;3.27;;;;;;;14.14;100.00;98949.44;5087639;28;20185;-49
2022/06/13 03:52:59;;;;;;;7.27;3.10;;;;;;;14.17;100.00;98944.69;5085962;28;20196;-50
2022/06/13 03:55:32;;;;;;;7.73;3.73;;;;;;;14.16;100.00;98952.72;5086056;28;20215;-49
2022/06/13 03:58:07;;;;;;;8.00;2.90;;;;;;;14.18;100.00;98950.75;5084325;28;20235;-49
2022/06/13 04:00:41;;;;;;;3.87;2.93;;;;;;;14.20;100.00;98950.59;5086886;28;20201;-50
2022/06/13 04:03:08;;;;;;;6.77;3.20;;;;;;;14.19;100.00;98946.34;5088505;28;20212;-50
2022/06/13 04:05:42;;;;;;;8.27;3.37;;;;;;;14.17;100.00;98954.38;5088630;28;20242;-49
2022/06/13 04:08:13;;;;;;;7.40;3.30;;;;;;;14.10;100.00;98962.09;5093160;28;20722;-49
2022/06/13 04:10:52;;;;;;;7.57;3.40;;;;;;;14.03;100.00;98959.28;5092176;28;20202;-50
2022/06/13 04:13:30;;;;;;;10.03;3.27;;;;;;;14.02;100.00;98970.78;5101956;28;20250;-49
2022/06/13 04:16:07;;;;;;;6.67;3.17;;;;;;;13.98;100.00;98979.16;5094043;28;20576;-49
2022/06/13 04:18:46;;;;;;;5.33;2.70;;;;;;;13.97;100.00;98982.78;5093834;28;20222;-49
2022/06/13 04:21:28;;;;;;;7.87;3.10;;;;;;;13.93;100.00;98982.25;5081893;28;20188;-49
2022/06/13 04:24:10;;;;;;;6.00;3.53;;;;;;;13.91;100.00;98986.84;5090298;28;20652;-49
2022/06/13 04:26:43;;;;;;;6.40;3.23;;;;;;;13.90;100.00;98987.03;5089098;28;20672;-50
2022/06/13 04:29:20;;;;;;;9.33;3.60;;;;;;;13.87;100.00;98988.16;5085193;28;20219;-49
2022/06/13 04:31:48;;;;;;;10.17;3.30;;;;;;;13.86;100.00;98989.16;5084237;28;20664;-50
2022/06/13 04:34:18;;;;;;;9.67;3.37;;;;;;;13.83;100.00;98992.94;5093702;28;20235;-49
2022/06/13 04:36:46;;;;;;;9.17;3.67;;;;;;;13.90;100.00;98989.66;5093718;28;20224;-50
2022/06/13 04:39:18;;;;;;;7.93;3.20;;;;;;;13.87;100.00;98999.50;5093301;28;20262;-49
2022/06/13 04:41:46;;;;;;;6.97;3.70;;;;;;;13.83;100.00;98997.34;5093953;28;20184;-49
2022/06/13 04:44:18;;;;;;;7.63;2.87;;;;;;;13.85;100.00;98998.00;5093863;28;20686;-50
2022/06/13 04:46:47;;;;;;;7.83;3.63;;;;;;;13.84;100.00;99007.69;5093117;28;20186;-49
2022/06/13 04:49:24;;;;;;;7.00;3.37;;;;;;;13.84;100.00;99006.84;5093312;28;20211;-49
2022/06/13 04:51:53;;;;;;;6.30;3.23;;;;;;;13.86;100.00;99007.50;5093318;28;20233;-49
2022/06/13 04:54:29;;;;;;;11.17;3.70;;;;;;;13.88;100.00;99013.41;5093486;28;20671;-49
2022/06/13 04:56:58;;;;;;;10.27;3.57;;;;;;;13.82;100.00;99025.41;5093581;28;20243;-49
2022/06/13 04:59:27;;;;;;;11.00;3.43;;;;;;;13.85;100.00;99019.81;5093192;28;20270;-49
2022/06/13 05:01:56;;;;;;;9.10;2.87;;;;;;;13.85;100.00;99026.88;5093164;28;20268;-49
2022/06/13 05:04:26;;;;;;;6.67;3.47;;;;;;;13.91;100.00;99020.16;5092771;28;20194;-49
2022/06/13 05:06:55;;;;;;;5.87;3.17;;;;;;;13.94;100.00;99027.72;5093469;28;20189;-50
2022/06/13 05:09:27;;;;;;;11.70;2.80;;;;;;;13.97;100.00;99022.94;5092833;28;20254;-50
2022/06/13 05:12:04;;;;;;;8.70;3.50;;;;;;;13.99;100.00;99028.03;5093069;28;20184;-49
2022/06/13 05:14:56;;;;;;;6.27;2.87;;;;;;;14.07;100.00;99029.84;5093274;28;20344;-52
2022/06/13 05:18:01;;;;;;;7.10;2.87;;;;;;;14.11;100.00;99029.38;5093096;28;20599;-50
2022/06/13 05:20:40;;;;;;;8.63;3.27;;;;;;;14.19;100.00;99040.84;5086716;28;20203;-50
2022/06/13 05:23:22;;;;;;;9.07;3.60;;;;;;;14.23;100.00;99042.16;5090460;28;20205;-50
2022/06/13 05:25:53;;;;;;;5.13;3.27;;;;;;;14.24;100.00;99044.63;5091329;28;20196;-49
2022/06/13 05:28:24;;;;;;;5.03;3.07;;;;;;;14.30;100.00;99056.28;5092356;28;20266;-49
2022/06/13 05:30:54;;;;;;;6.50;3.07;;;;;;;14.43;100.00;99058.41;5092648;28;20553;-50
2022/06/13 05:33:24;;;;;;;6.20;3.47;;;;;;;14.59;100.00;99063.66;5092558;28;20200;-51
2022/06/13 05:35:54;;;;;;;6.27;3.40;;;;;;;14.86;100.00;99063.47;5083044;28;20219;-49
2022/06/13 05:38:37;;;;;;;13.03;3.70;;;;;;;15.16;100.00;99061.88;5076911;28;20237;-50
2022/06/13 05:41:25;;;;;;;6.90;3.13;;;;;;;15.78;100.00;99069.97;5085914;28;20204;-50
2022/06/13 05:43:52;;;;;;;8.70;3.13;;;;;;;16.21;100.00;99072.19;5092296;28;20218;-49
2022/06/13 05:46:26;;;;;;;6.23;2.60;;;;;;;16.50;97.90;99079.34;5092317;28;20191;-50
2022/06/13 05:48:53;;;;;;;7.43;3.10;;;;;;;16.93;97.80;99084.09;5091998;28;20215;-50
2022/06/13 05:51:38;;;;;;;6.50;2.60;;;;;;;17.33;93.25;99096.19;5092521;28;20330;-50
2022/06/13 05:54:06;;;;;;;6.13;3.03;;;;;;;17.44;92.03;99097.56;5092043;28;20219;-50
2022/06/13 05:56:34;;;;;;;8.10;2.77;;;;;;;17.38;90.18;99099.94;5090968;28;20216;-50
2022/06/13 05:59:01;;;;;;;7.57;3.00;;;;;;;17.59;89.00;99093.06;5091888;28;20207;-49
2022/06/13 06:01:28;;;;;;;7.77;3.00;;;;;;;17.74;81.85;99103.59;5092069;28;20696;-50
2022/06/13 06:03:55;;;;;;;10.77;2.83;;;;;;;17.65;81.16;99097.59;5091768;28;20632;-50
2022/06/13 06:06:25;;;;;;;8.50;2.70;;;;;;;17.73;83.60;99109.06;5090059;28;20272;-49
2022/06/13 06:08:54;;;;;;;9.27;3.30;;;;;;;17.51;83.76;99109.00;5091213;28;20231;-50
2022/06/13 06:11:22;;;;;;;5.07;2.60;;;;;;;17.66;84.46;99120.34;5091258;28;20220;-50
2022/06/13 06:13:51;;;;;;;6.47;2.50;;;;;;;17.80;79.96;99121.34;5091575;28;20219;-50
2022/06/13 06:16:22;;;;;;;5.97;2.87;;;;;;;17.83;79.83;99115.69;5091908;28;20209;-50
2022/06/13 06:18:50;;;;;;;8.77;2.90;;;;;;;17.82;76.60;99129.91;5091774;28;20603;-50
2022/06/13 06:21:17;;;;;;;5.60;3.17;;;;;;;17.79;80.16;99119.72;5091918;28;20283;-50
2022/06/13 06:23:44;;;;;;;9.83;3.33;;;;;;;17.95;77.97;99133.69;5092259;28;20195;-49
2022/06/13 06:26:14;;;;;;;6.17;2.40;;;;;;;18.22;77.31;99124.25;5092004;28;20182;-49
2022/06/13 06:28:41;;;;;;;7.20;2.83;;;;;;;18.14;77.99;99137.56;5091597;28;20204;-49
2022/06/13 06:31:11;;;;;;;5.77;3.10;;;;;;;18.18;77.16;99141.47;5091963;28;20193;-49
2022/06/13 06:33:37;;;;;;;11.37;2.47;;;;;;;18.17;75.81;99141.66;5091884;28;20191;-48
2022/06/13 06:36:05;;;;;;;8.60;2.47;;;;;;;18.14;75.90;99137.56;5091975;28;20219;-49
2022/06/13 06:38:32;;;;;;;7.43;2.93;;;;;;;18.05;75.26;99147.44;5091519;28;20210;-49
2022/06/13 06:40:59;;;;;;;10.37;2.80;;;;;;;18.04;75.23;99148.44;5091442;28;20186;-49
2022/06/13 06:43:26;;;;;;;8.10;2.80;;;;;;;18.04;74.69;99148.44;5090604;28;20208;-50
2022/06/13 06:45:53;;;;;;;7.00;2.90;;;;;;;18.03;75.46;99151.28;5090520;28;20195;-49
2022/06/13 06:48:23;;;;;;;4.83;2.77;;;;;;;18.18;75.21;99148.56;5091693;28;20206;-49
2022/06/13 06:50:52;;;;;;;7.53;2.87;;;;;;;18.36;76.78;99153.44;5092259;28;20191;-54
2022/06/13 06:53:20;;;;;;;7.33;2.87;;;;;;;18.48;73.85;99156.38;5092099;28;20361;-50
2022/06/13 07:01:19;;;;;;;4.90;2.60;;;;;;;18.44;75.07;99156.78;5095684;28;20181;-50
2022/06/13 07:03:48;;;;;;;13.63;2.73;;;;;;;18.49;75.85;99153.56;5095139;28;20188;-50
2022/06/13 07:06:16;;;;;;;7.33;3.43;;;;;;;18.40;74.96;99158.16;5095023;28;20267;-50
2022/06/13 07:08:43;;;;;;;5.43;3.00;;;;;;;18.54;74.69;99160.91;5094550;28;20208;-49
2022/06/13 07:14:00;;;;;;;8.07;3.00;;;;;;;18.56;76.42;99161.56;5095389;28;20188;-50
2022/06/13 07:16:27;;;;;;;9.20;3.60;;;;;;;18.52;75.73;99153.19;5095315;28;20253;-51
2022/06/13 07:18:56;;;;;;;10.13;3.57;;;;;;;18.61;75.61;99153.88;5085941;28;20224;-49
2022/06/13 07:21:24;;;;;;;7.37;3.30;;;;;;;18.84;74.21;99161.56;5084337;28;20228;-49
2022/06/13 07:24:11;;;;;;;8.17;2.70;;;;;;;19.05;72.62;99165.22;5090051;28;20234;-50
2022/06/13 07:26:39;;;;;;;5.93;3.10;;;;;;;19.05;70.37;99153.84;5086385;28;20188;-50
2022/06/13 07:29:06;;;;;;;10.33;3.40;;;;;;;19.23;67.00;99166.56;5083893;28;20226;-49
2022/06/13 07:31:37;;;;;;;6.83;3.13;;;;;;;19.23;69.27;99161.28;5085096;28;20545;-51
2022/06/13 07:34:07;;;;;;;8.17;3.20;;;;;;;19.16;67.30;99169.16;5084059;28;20576;-48
2022/06/13 07:36:35;;;;;;;7.70;3.73;;;;;;;19.19;70.02;99166.13;5085312;28;20256;-48
2022/06/13 07:39:01;;;;;;;8.47;3.00;;;;;;;19.22;69.96;99171.03;5083810;28;20213;-48
2022/06/13 07:41:47;;;;;;;7.30;3.50;;;;;;;19.24;66.58;99162.91;5084490;28;20200;-48
2022/06/13 07:44:19;;;;;;;5.53;2.60;;;;;;;19.36;66.95;99163.16;5085372;28;20194;-49
2022/06/13 07:46:47;;;;;;;6.97;3.20;;;;;;;19.38;68.58;99163.78;5084226;28;20200;-49
2022/06/13 07:49:15;;;;;;;7.77;3.67;;;;;;;19.25;70.08;99167.19;5081615;28;20220;-50
2022/06/13 07:51:42;;;;;;;6.83;3.63;;;;;;;19.32;70.39;99168.03;5079963;28;20193;-50
2022/06/13 07:54:09;;;;;;;12.20;3.83;;;;;;;19.36;68.11;99168.47;5093186;28;20196;-50
2022/06/13 07:56:38;;;;;;;9.57;3.63;;;;;;;19.45;68.98;99172.59;5093506;28;20670;-48
2022/06/13 07:59:07;;;;;;;8.63;3.50;;;;;;;19.65;68.78;99163.94;5094563;28;20239;-49
2022/06/13 08:01:36;;;;;;;7.33;3.37;;;;;;;19.81;68.32;99168.06;5094856;28;20198;-49
2022/06/13 08:04:04;;;;;;;5.77;3.73;;;;;;;19.93;67.92;99168.34;5090209;28;20204;-50
2022/06/13 08:06:32;;;;;;;8.27;3.20;;;;;;;19.82;64.57;99164.41;5083343;28;20193;-49
2022/06/13 08:09:00;;;;;;;8.53;4.23;;;;;;;19.83;65.14;99174.81;5079661;28;20221;-49
2022/06/13 08:11:32;;;;;;;8.37;3.40;;;;;;;20.16;64.27;99179.41;5079682;28;20271;-49
2022/06/13 08:14:00;;;;;;;10.80;3.57;;;;;;;19.83;64.09;99180.13;5082286;28;20210;-49
2022/06/13 08:16:27;;;;;;;6.57;3.40;;;;;;;20.03;60.10;99187.34;5084645;28;20207;-48
2022/06/13 08:18:54;;;;;;;10.67;4.23;;;;;;;19.88;58.87;99182.16;5086781;28;20213;-50
2022/06/13 08:21:23;;;;;;;10.33;3.03;;;;;;;19.85;60.43;99179.91;5088300;28;20196;-49
2022/06/13 08:23:51;;;;;;;8.47;3.67;;;;;;;19.68;59.19;99180.22;5084221;28;20690;-49
2022/06/13 08:26:19;;;;;;;9.43;3.30;;;;;;;19.73;59.68;99184.94;5072635;28;20191;-49
2022/06/13 08:28:46;;;;;;;9.87;3.80;;;;;;;19.88;60.68;99185.63;5073485;28;20274;-49
2022/06/13 08:31:15;;;;;;;9.43;4.33;;;;;;;19.88;63.73;99184.81;5072397;28;20201;-49
2022/06/13 08:33:42;;;;;;;8.43;3.57;;;;;;;20.10;58.48;99190.84;5073778;28;20285;-50
2022/06/13 08:36:11;;;;;;;8.70;3.50;;;;;;;20.07;59.88;99193.88;5073757;28;20212;-47
2022/06/13 08:38:39;;;;;;;11.33;3.43;;;;;;;20.18;61.41;99189.84;5073486;28;20732;-47
2022/06/13 08:41:19;;;;;;;11.40;4.03;;;;;;;19.88;57.88;99190.09;5073743;28;20187;-46
2022/06/13 08:44:07;;;;;;;12.00;4.33;;;;;;;20.08;58.66;99195.53;5073618;28;20184;-50
2022/06/13 08:46:45;;;;;;;8.10;3.10;;;;;;;20.58;59.18;99197.88;5073931;28;20182;-48
2022/06/13 08:49:18;;;;;;;11.77;3.70;;;;;;;20.82;56.61;99202.81;5071551;28;20215;-49
2022/06/13 08:51:48;;;;;;;10.50;3.30;;;;;;;20.81;60.31;99201.97;5072234;28;20201;-49
2022/06/13 08:54:21;;;;;;;9.27;3.57;;;;;;;21.25;57.07;99215.63;5073124;28;20274;-49
2022/06/13 08:56:50;;;;;;;12.83;4.17;;;;;;;21.08;54.52;99208.13;5073044;28;20207;-49
2022/06/13 08:59:26;;;;;;;10.40;3.40;;;;;;;21.07;55.72;99217.09;5073001;28;20208;-49
2022/06/13 09:01:59;;;;;;;8.20;3.47;;;;;;;20.56;54.83;99218.47;5072988;28;20193;-48
2022/06/13 09:04:32;;;;;;;14.47;3.70;;;;;;;20.15;57.89;99217.53;5073237;28;20580;-48
2022/06/13 09:07:03;;;;;;;10.30;3.53;;;;;;;20.34;59.61;99221.28;5072758;28;20189;-48
2022/06/13 09:09:35;;;;;;;8.83;3.10;;;;;;;20.62;52.75;99219.50;5071132;28;20211;-49
2022/06/13 09:12:08;;;;;;;11.97;3.80;;;;;;;20.33;51.80;99217.00;5091779;28;20280;-50
2022/06/13 09:14:37;;;;;;;9.17;3.17;;;;;;;20.33;52.92;99218.81;5092657;28;20285;-53
2022/06/13 09:17:13;;;;;;;10.20;3.97;;;;;;;20.06;55.34;99221.41;5092025;28;20211;-52
2022/06/13 09:19:49;;;;;;;9.80;3.63;;;;;;;19.95;58.95;99217.47;5091948;28;20187;-49
2022/06/13 09:22:26;;;;;;;11.97;3.97;;;;;;;20.12;59.17;99217.13;5090809;28;20238;-49
2022/06/13 09:25:01;;;;;;;12.60;3.10;;;;;;;20.38;59.48;99215.59;5091380;28;20208;-49
2022/06/13 09:27:34;;;;;;;9.03;3.73;;;;;;;20.50;57.69;99220.09;5091791;28;20181;-52
2022/06/13 09:30:07;;;;;;;6.57;2.90;;;;;;;20.61;56.65;99217.84;5092945;28;20216;-49
2022/06/13 09:32:39;;;;;;;6.77;2.50;;;;;;;20.48;54.21;99222.13;5092739;28;20184;-50
2022/06/13 09:35:15;;;;;;;13.33;3.43;;;;;;;20.42;51.95;99224.78;5093367;28;20189;-49
2022/06/13 09:37:48;;;;;;;6.83;3.00;;;;;;;20.23;53.04;99227.16;5092529;28;20216;-49
2022/06/13 09:40:18;;;;;;;5.47;3.23;;;;;;;20.41;53.12;99212.53;5092594;28;20276;-49
2022/06/13 09:43:03;;;;;;;8.63;2.90;;;;;;;20.38;49.98;99215.59;5092620;28;20190;-51
2022/06/13 09:45:48;;;;;;;8.63;3.10;;;;;;;20.32;54.29;99211.88;5092603;28;20183;-51
2022/06/13 09:48:32;;;;;;;9.30;3.43;;;;;;;20.36;54.05;99213.13;5092546;28;20217;-51
2022/06/13 09:51:09;;;;;;;9.07;3.43;;;;;;;20.49;51.13;99212.34;5092526;28;20196;-51
2022/06/13 09:53:45;;;;;;;8.00;3.43;;;;;;;20.37;50.40;99214.75;5092783;28;20546;-50
2022/06/13 09:56:19;;;;;;;10.17;3.00;;;;;;;20.90;51.90;99218.53;5092392;28;20668;-51
2022/06/13 09:59:02;;;;;;;7.73;2.97;;;;;;;21.22;51.78;99213.41;5092183;28;20626;-52
2022/06/13 10:01:35;;;;;;;8.77;2.40;;;;;;;21.23;50.07;99225.66;5092988;28;20185;-50
2022/06/13 10:04:10;;;;;;;10.03;3.10;;;;;;;21.32;50.35;99218.31;5092966;28;20218;-50
2022/06/13 10:06:41;;;;;;;8.80;3.50;;;;;;;21.24;50.23;99214.84;5092957;28;20200;-51
2022/06/13 10:09:22;;;;;;;8.30;3.00;;;;;;;21.64;53.00;99213.97;5092324;28;20635;-52
2022/06/13 10:11:56;;;;;;;8.07;3.50;;;;;;;21.59;50.71;99219.06;5092392;28;20201;-51
2022/06/13 10:14:42;;;;;;;11.30;3.37;;;;;;;21.46;50.27;99221.72;5093254;28;20195;-51
2022/06/13 10:17:31;;;;;;;5.77;2.77;;;;;;;21.80;48.11;99235.78;5092535;28;20235;-51
2022/06/13 10:20:03;;;;;;;9.03;3.13;;;;;;;21.64;47.33;99223.78;5090986;28;20283;-54
2022/06/13 10:22:39;;;;;;;5.47;2.63;;;;;;;21.87;46.21;99225.13;5092742;28;20185;-53
2022/06/13 10:25:26;;;;;;;3.60;2.43;;;;;;;22.17;45.70;99216.63;5091282;28;20199;-54
2022/06/13 10:28:06;;;;;;;9.33;2.80;;;;;;;22.30;42.31;99221.88;5091877;28;20704;-51
2022/06/13 10:30:46;;;;;;;8.17;2.90;;;;;;;22.05;43.09;99227.91;5097048;28;20184;-50
2022/06/13 10:33:30;;;;;;;4.70;2.50;;;;;;;21.69;44.29;99218.66;5096948;28;20282;-50
2022/06/13 10:36:06;;;;;;;5.17;2.13;;;;;;;21.80;45.40;99219.84;5096679;28;20545;-53
2022/06/13 10:38:57;;;;;;;5.30;2.90;;;;;;;21.87;49.23;99222.47;5084577;28;20213;-50
2022/06/13 10:41:26;;;;;;;6.90;2.40;;;;;;;22.42;47.46;99219.34;5089014;28;20202;-51
2022/06/13 10:43:55;;;;;;;7.80;2.70;;;;;;;22.55;46.01;99216.63;5085942;28;20282;-49
2022/06/13 10:46:24;;;;;;;7.50;2.37;;;;;;;22.77;42.39;99216.28;5089262;28;20202;-51
2022/06/13 10:48:57;;;;;;;12.50;3.00;;;;;;;22.25;43.48;99211.06;5091521;28;20692;-50
2022/06/13 10:51:24;;;;;;;10.53;2.50;;;;;;;21.96;44.31;99222.03;5086521;28;20199;-50
2022/06/13 10:53:57;;;;;;;7.27;3.20;;;;;;;21.24;46.11;99221.97;5088240;28;20227;-51
2022/06/13 10:56:30;;;;;;;7.33;2.20;;;;;;;21.83;44.72;99216.75;5084586;28;20184;-52
2022/06/13 10:58:59;;;;;;;7.00;2.47;;;;;;;21.96;46.56;99214.06;5087287;28;20215;-50
2022/06/13 11:01:29;;;;;;;8.37;2.97;;;;;;;22.05;48.45;99214.63;5095924;28;20192;-52
2022/06/13 11:04:18;;;;;;;5.07;2.00;;;;;;;22.19;43.54;99218.06;5084186;28;20188;-50
2022/06/13 11:06:49;;;;;;;6.17;2.50;;;;;;;22.41;44.50;99221.19;5076573;28;20196;-49
2022/06/13 11:09:27;;;;;;;6.40;2.60;;;;;;;22.23;45.23;99227.22;5081866;28;20652;-50
2022/06/13 11:11:56;;;;;;;12.13;2.83;;;;;;;22.72;43.62;99233.94;5091708;28;20196;-50
2022/06/13 11:14:33;;;;;;;6.57;2.47;;;;;;;22.38;42.68;99223.44;5094004;28;20672;-51
2022/06/13 11:22:38;;;;;;;4.50;1.87;;;;;;;23.48;42.32;99225.91;5090359;28;20204;-49
2022/06/13 11:25:17;;;;;;;6.97;1.63;;;;;;;23.58;41.63;99218.22;5095488;28;20203;-50
2022/06/13 11:27:47;;;;;;;5.40;1.93;;;;;;;23.47;39.96;99224.28;5085021;28;20668;-49
2022/06/13 11:30:45;;;;;;;5.60;1.93;;;;;;;23.02;40.46;99222.63;5092577;28;20241;-49
2022/06/13 11:33:29;;;;;;;6.17;1.90;;;;;;;23.33;41.32;99218.28;5091708;28;20190;-50
2022/06/13 11:35:59;;;;;;;7.47;2.13;;;;;;;22.98;39.55;99230.25;5085116;28;20196;-50
2022/06/13 11:38:29;;;;;;;5.70;2.03;;;;;;;22.56;40.33;99223.56;5081789;28;20311;-52
2022/06/13 11:41:06;;;;;;;5.83;2.03;;;;;;;23.25;38.39;99211.41;5081884;28;20193;-54
2022/06/13 11:43:45;;;;;;;4.97;1.83;;;;;;;23.36;38.95;99220.50;5084214;28;20245;-56
2022/06/13 11:46:31;;;;;;;4.83;1.80;;;;;;;23.15;41.61;99222.50;5087355;28;20657;-51
2022/06/13 11:49:03;;;;;;;6.90;2.33;;;;;;;23.49;41.27;99215.03;5082891;28;20598;-51
2022/06/13 11:51:42;;;;;;;5.10;2.27;;;;;;;23.16;40.54;99216.16;5081458;28;20200;-49
2022/06/13 11:54:20;;;;;;;8.33;2.27;;;;;;;23.37;40.81;99206.16;5086481;28;20192;-52
2022/06/13 11:56:48;;;;;;;5.60;1.90;;;;;;;23.20;40.96;99204.03;5082945;28;20214;-51
2022/06/13 11:59:19;;;;;;;5.13;2.17;;;;;;;22.42;41.82;99206.03;5084635;28;20208;-51
2022/06/13 12:01:47;;;;;;;7.70;2.03;;;;;;;22.40;42.26;99208.09;5084624;28;20203;-52
2022/06/13 12:04:20;;;;;;;9.10;2.47;;;;;;;22.65;43.02;99196.72;5083869;28;20187;-52
2022/06/13 12:06:50;;;;;;;10.00;2.23;;;;;;;22.72;39.61;99196.69;5084341;28;20588;-53
2022/06/13 12:09:21;;;;;;;7.13;2.03;;;;;;;22.71;39.93;99206.50;5083588;28;20679;-52
2022/06/13 12:11:53;;;;;;;5.50;2.07;;;;;;;23.11;37.25;99200.84;5081101;28;20227;-56
2022/06/13 12:14:20;;;;;;;4.37;1.80;;;;;;;23.17;39.12;99199.13;5083806;28;20201;-52